KHBV Airport (Jim Hogg County) Information

FAA: HBV - ICAO: KHBV

KHBV Airport Location

State Texas
County Jim Hogg
City Hebbronville
KHBV Airport is 3 miles northwest of Hebbronville, TX.
Latitude 27-20-58.4000N
Longitude 098-44-13.0000W
Elevation 662ft

KHBV Airport METARs

METAR KHBV 251735Z AUTO 00000KT 10SM CLR 29/22 A2998 RMK AO2 T02850220
Altimeter 29.98"
Temperature 28.5°C (83.3°F)
Wind 0° at 0KT
Clouds Skies are clear.
Visibility 10.0mi
Time observed: 2021-10-25T17:35:00Z

KHBV Airport Details

Status Operational
Activation N/A
Ownership Public
Usage Public
Chart BROWNSVILLE
ATC on-site No
Beacon schedule sunset-sunrise
Beacon color clear green

KHBV Airport Contacts

Owner JIM HOGG COUNTY
Owner address PO BOX 729, HEBBRONVILLE, TX 78361
Owner phone 361-527-3015
Manager WINFORD SMITH
Manager address HC01, BOX 210, PLAINVIEW, TX 79072
Manager phone 806-889-3818

KHBV Airport (Jim Hogg County) Radio Frequencies

KHBV (Airport) Radio Frequencies

UNICOM 122.8
Common traffic advisory frequency (CTAF) 122.8